createdAt,value
2022-09-24T00:01:24.375Z,10.42
2022-09-24T00:03:52.516Z,10.84
2022-09-24T00:06:19.323Z,10.86
2022-09-24T00:08:46.515Z,10.86
2022-09-24T00:11:14.108Z,10.90
2022-09-24T00:13:41.032Z,11.12
2022-09-24T00:16:11.517Z,10.89
2022-09-24T00:18:38.827Z,10.81
2022-09-24T00:21:31.835Z,10.89
2022-09-24T00:23:59.879Z,10.86
2022-09-24T00:26:45.381Z,10.92
2022-09-24T00:29:13.101Z,10.96
2022-09-24T00:31:39.928Z,10.87
2022-09-24T00:34:06.844Z,10.98
2022-09-24T00:36:34.110Z,10.74
2022-09-24T00:39:00.931Z,10.79
2022-09-24T00:41:28.779Z,10.37
2022-09-24T00:43:55.878Z,10.66
2022-09-24T00:46:39.402Z,10.48
2022-09-24T00:49:11.041Z,10.54
2022-09-24T00:51:38.959Z,10.71
2022-09-24T00:54:06.807Z,10.69
2022-09-24T00:56:34.793Z,10.60
2022-09-24T00:59:02.515Z,10.83
2022-09-24T01:01:30.062Z,10.71
2022-09-24T01:03:57.460Z,10.56
2022-09-24T01:06:24.743Z,10.67
2022-09-24T01:08:51.780Z,10.71
2022-09-24T01:11:21.648Z,10.58
2022-09-24T01:14:09.005Z,10.56
2022-09-24T01:16:38.763Z,10.66
2022-09-24T01:19:32.050Z,10.50
2022-09-24T01:22:03.444Z,10.55
2022-09-24T01:24:48.901Z,10.42
2022-09-24T01:27:17.091Z,10.58
2022-09-24T01:29:43.862Z,10.51
2022-09-24T01:32:32.288Z,10.48
2022-09-24T01:35:02.527Z,10.23
2022-09-24T01:37:29.389Z,10.42
2022-09-24T01:39:56.586Z,10.33
2022-09-24T01:42:23.639Z,10.17
2022-09-24T01:44:50.348Z,10.24
2022-09-24T01:47:19.121Z,10.31
2022-09-24T01:49:46.219Z,10.24
2022-09-24T01:52:13.410Z,10.46
2022-09-24T01:54:42.888Z,10.29
2022-09-24T01:57:09.903Z,10.51
2022-09-24T01:59:38.024Z,10.39
2022-09-24T02:02:06.189Z,10.35
2022-09-24T02:04:34.085Z,10.30
2022-09-24T02:07:02.000Z,10.49
2022-09-24T02:09:29.533Z,10.50
2022-09-24T02:11:56.665Z,10.11
2022-09-24T02:14:23.603Z,10.20
2022-09-24T02:16:51.782Z,10.06
2022-09-24T02:19:23.110Z,10.25
2022-09-24T02:21:49.907Z,10.12
2022-09-24T02:24:23.065Z,10.16
2022-09-24T02:26:50.786Z,9.99
2022-09-24T02:29:18.584Z,10.22
2022-09-24T02:31:46.895Z,10.44
2022-09-24T02:34:34.122Z,10.23
2022-09-24T02:37:05.303Z,10.36
2022-09-24T02:39:33.686Z,9.96
2022-09-24T02:42:00.857Z,10.06
2022-09-24T02:44:28.575Z,9.88
2022-09-24T02:46:55.772Z,10.07
2022-09-24T02:49:22.536Z,10.04
2022-09-24T02:51:49.370Z,10.24
2022-09-24T02:54:16.332Z,10.23
2022-09-24T02:56:43.033Z,10.52
2022-09-24T02:59:09.782Z,10.06
2022-09-24T03:01:36.901Z,9.98
2022-09-24T03:04:03.788Z,9.90
2022-09-24T03:06:30.577Z,9.73
2022-09-24T03:08:57.526Z,9.90
2022-09-24T03:11:24.345Z,9.90
2022-09-24T03:13:51.394Z,9.83
2022-09-24T03:16:18.629Z,9.84
2022-09-24T03:18:46.682Z,10.04
2022-09-24T03:21:13.992Z,9.88
2022-09-24T03:23:41.255Z,9.85
2022-09-24T03:26:08.137Z,9.91
2022-09-24T03:28:34.806Z,10.17
2022-09-24T03:31:01.926Z,10.24
2022-09-24T03:33:49.336Z,9.83
2022-09-24T03:36:17.685Z,10.05
2022-09-24T03:38:45.169Z,10.23
2022-09-24T03:41:12.863Z,9.69
2022-09-24T03:43:39.864Z,9.83
2022-09-24T03:46:06.944Z,9.99
2022-09-24T03:48:34.805Z,9.76
2022-09-24T03:51:08.784Z,9.69
2022-09-24T03:53:35.522Z,9.74
2022-09-24T03:56:03.144Z,9.69
2022-09-24T03:58:31.496Z,9.68
2022-09-24T04:00:58.274Z,9.70
2022-09-24T04:03:25.372Z,9.81
2022-09-24T04:05:52.252Z,10.05
2022-09-24T04:08:21.995Z,9.92
2022-09-24T04:10:50.999Z,9.75
2022-09-24T04:13:18.064Z,9.55
2022-09-24T04:15:45.036Z,9.99
2022-09-24T04:18:12.051Z,9.65
2022-09-24T04:20:38.796Z,9.83
2022-09-24T04:23:05.476Z,9.56
2022-09-24T04:25:32.443Z,9.82
2022-09-24T04:28:03.053Z,10.00
2022-09-24T04:30:30.162Z,9.65
2022-09-24T04:32:59.913Z,9.58
2022-09-24T04:35:27.117Z,9.25
2022-09-24T04:37:53.872Z,9.73
2022-09-24T04:40:20.913Z,9.49
2022-09-24T04:42:47.681Z,9.58
2022-09-24T04:45:16.469Z,9.53
2022-09-24T04:47:43.413Z,9.82
2022-09-24T04:50:11.403Z,9.77
2022-09-24T04:52:38.712Z,9.74
2022-09-24T04:55:05.931Z,9.85
2022-09-24T04:57:36.499Z,9.46
2022-09-24T05:00:07.257Z,9.60
2022-09-24T05:02:34.341Z,9.36
2022-09-24T05:05:01.044Z,9.62
2022-09-24T05:07:27.751Z,9.55
2022-09-24T05:09:54.722Z,9.82
2022-09-24T05:12:21.383Z,9.70
2022-09-24T05:14:48.751Z,9.89
2022-09-24T05:17:15.717Z,9.89
2022-09-24T05:19:42.401Z,10.08
2022-09-24T05:22:09.065Z,10.00
2022-09-24T05:24:36.006Z,10.01
2022-09-24T05:27:11.544Z,10.36
2022-09-24T05:29:39.556Z,10.15
2022-09-24T05:32:10.493Z,10.12
2022-09-24T05:34:37.213Z,10.33
2022-09-24T05:37:04.745Z,10.18
2022-09-24T05:39:33.962Z,10.48
2022-09-24T05:42:01.871Z,10.78
2022-09-24T05:44:29.539Z,10.86
2022-09-24T05:46:56.229Z,10.88
2022-09-24T05:49:23.056Z,10.92
2022-09-24T05:51:50.480Z,11.10
2022-09-24T05:54:17.464Z,11.30
2022-09-24T05:56:44.149Z,11.24
2022-09-24T05:59:11.257Z,11.34
2022-09-24T06:01:38.060Z,11.18
2022-09-24T06:04:08.884Z,11.49
2022-09-24T06:06:36.457Z,11.46
2022-09-24T06:09:03.421Z,11.35
2022-09-24T06:11:40.079Z,11.29
2022-09-24T06:14:14.676Z,11.37
2022-09-24T06:16:50.478Z,11.80
2022-09-24T06:19:26.221Z,11.50
2022-09-24T06:21:55.357Z,11.81
2022-09-24T06:24:27.546Z,11.90
2022-09-24T06:26:56.219Z,12.11
2022-09-24T06:29:36.272Z,12.34
2022-09-24T06:32:06.272Z,12.57
2022-09-24T06:34:39.764Z,12.55
2022-09-24T06:37:07.845Z,12.78
2022-09-24T06:39:35.168Z,12.81
2022-09-24T06:42:02.864Z,13.00
2022-09-24T06:44:34.923Z,13.16
2022-09-24T06:47:05.652Z,13.34
2022-09-24T06:49:36.431Z,13.51
2022-09-24T06:52:05.131Z,13.51
2022-09-24T06:54:35.687Z,13.71
2022-09-24T06:57:04.265Z,13.78
2022-09-24T06:59:30.964Z,14.02
2022-09-24T07:01:58.452Z,14.12
2022-09-24T07:04:25.165Z,14.23
2022-09-24T07:07:10.406Z,14.57
2022-09-24T07:09:40.758Z,14.75
2022-09-24T07:12:08.889Z,14.97
2022-09-24T07:14:35.666Z,15.45
2022-09-24T07:17:02.685Z,15.64
2022-09-24T07:19:29.377Z,16.10
2022-09-24T07:21:56.084Z,15.98
2022-09-24T07:24:23.188Z,16.34
2022-09-24T07:26:49.869Z,16.10
2022-09-24T07:29:16.589Z,16.25
2022-09-24T07:31:43.616Z,16.40
2022-09-24T07:34:10.403Z,16.33
2022-09-24T07:36:37.171Z,16.25
2022-09-24T07:39:04.947Z,16.09
2022-09-24T07:41:31.685Z,16.13
2022-09-24T07:43:58.437Z,16.24
2022-09-24T07:46:25.752Z,16.32
2022-09-24T07:48:54.224Z,16.43
2022-09-24T07:51:20.953Z,16.62
2022-09-24T07:53:48.606Z,16.61
2022-09-24T07:56:15.275Z,16.55
2022-09-24T07:58:41.991Z,16.45
2022-09-24T08:01:08.982Z,16.77
2022-09-24T08:03:36.602Z,16.97
2022-09-24T08:06:04.217Z,16.86
2022-09-24T08:08:30.888Z,16.74
2022-09-24T08:10:57.921Z,17.20
2022-09-24T08:13:27.738Z,16.96
2022-09-24T08:15:59.543Z,17.40
2022-09-24T08:18:26.715Z,17.58
2022-09-24T08:20:53.408Z,17.60
2022-09-24T08:23:20.720Z,17.92
2022-09-24T08:25:47.959Z,17.92
2022-09-24T08:28:17.060Z,18.10
2022-09-24T08:30:44.219Z,18.30
2022-09-24T08:33:11.278Z,18.59
2022-09-24T08:35:40.197Z,18.57
2022-09-24T08:38:07.153Z,18.17
2022-09-24T08:40:43.486Z,18.57
2022-09-24T08:43:15.788Z,18.84
2022-09-24T08:46:03.105Z,19.07
2022-09-24T08:48:31.695Z,18.88
2022-09-24T08:51:01.348Z,19.18
2022-09-24T08:53:28.167Z,18.88
2022-09-24T08:55:56.072Z,19.01
2022-09-24T08:58:32.025Z,19.26
2022-09-24T09:01:01.052Z,19.63
2022-09-24T09:03:51.731Z,19.43
2022-09-24T09:06:36.750Z,19.26
2022-09-24T09:09:13.918Z,18.77
2022-09-24T09:11:41.007Z,19.59
2022-09-24T09:14:12.492Z,19.80
2022-09-24T09:16:58.870Z,19.90
2022-09-24T09:19:27.239Z,20.09
2022-09-24T09:21:56.035Z,19.78
2022-09-24T09:24:26.730Z,19.72
2022-09-24T09:26:55.270Z,20.10
2022-09-24T09:29:22.744Z,20.38
2022-09-24T09:32:02.796Z,20.00
2022-09-24T09:34:35.720Z,20.51
2022-09-24T09:37:08.272Z,20.43
2022-09-24T09:39:45.999Z,20.43
2022-09-24T09:42:12.712Z,20.66
2022-09-24T09:44:43.175Z,20.86
2022-09-24T09:47:16.976Z,20.58
2022-09-24T09:49:44.196Z,20.82
2022-09-24T09:52:13.262Z,21.18
2022-09-24T09:54:41.183Z,21.16
2022-09-24T09:57:08.833Z,20.85
2022-09-24T09:59:35.582Z,20.71
2022-09-24T10:02:02.367Z,20.37
2022-09-24T10:04:35.538Z,20.23
2022-09-24T10:07:15.127Z,20.67
2022-09-24T10:09:42.614Z,20.21
2022-09-24T10:12:16.167Z,20.16
2022-09-24T10:14:43.310Z,20.41
2022-09-24T10:17:11.743Z,20.06
2022-09-24T10:19:39.421Z,20.40
2022-09-24T10:22:17.583Z,20.09
2022-09-24T10:24:44.258Z,20.19
2022-09-24T10:27:12.846Z,20.38
2022-09-24T10:29:58.309Z,20.61
2022-09-24T10:32:26.233Z,20.79
2022-09-24T10:35:00.499Z,20.81
2022-09-24T10:37:27.760Z,20.86
2022-09-24T10:40:01.718Z,20.78
2022-09-24T10:42:29.385Z,21.10
2022-09-24T10:44:56.469Z,21.24
2022-09-24T10:47:32.949Z,21.49
2022-09-24T10:50:04.138Z,21.24
2022-09-24T10:52:43.048Z,21.42
2022-09-24T10:55:28.946Z,21.09
2022-09-24T10:58:04.698Z,21.15
2022-09-24T11:00:52.186Z,21.59
2022-09-24T11:03:19.045Z,21.12
2022-09-24T11:06:04.867Z,20.54
2022-09-24T11:08:54.885Z,20.67
2022-09-24T11:11:37.300Z,20.85
2022-09-24T11:14:04.256Z,20.82
2022-09-24T11:16:44.794Z,21.08
2022-09-24T11:19:24.001Z,20.84
2022-09-24T11:22:06.774Z,20.73
2022-09-24T11:24:36.011Z,21.21
2022-09-24T11:27:14.859Z,21.46
2022-09-24T11:29:44.985Z,21.52
2022-09-24T11:32:12.882Z,21.34
2022-09-24T11:34:58.348Z,21.52
2022-09-24T11:37:39.378Z,21.34
2022-09-24T11:40:12.375Z,21.96
2022-09-24T11:42:53.601Z,21.54
2022-09-24T11:45:27.214Z,21.66
2022-09-24T11:48:03.782Z,21.58
2022-09-24T11:50:47.555Z,21.73
2022-09-24T11:53:31.669Z,21.96
2022-09-24T11:55:59.159Z,22.02
2022-09-24T11:58:30.960Z,22.22
2022-09-24T12:00:59.377Z,22.23
2022-09-24T12:03:35.407Z,22.22
2022-09-24T12:06:13.328Z,22.32
2022-09-24T12:09:01.498Z,22.11
2022-09-24T12:11:36.187Z,22.00
2022-09-24T12:14:05.696Z,21.53
2022-09-24T12:16:33.944Z,21.62
2022-09-24T12:19:08.247Z,21.26
2022-09-24T12:21:42.204Z,21.35
2022-09-24T12:24:11.423Z,21.01
2022-09-24T12:26:38.359Z,21.25
2022-09-24T12:29:41.749Z,20.99
2022-09-24T12:32:40.135Z,21.67
2022-09-24T12:35:07.282Z,20.96
2022-09-24T12:37:36.021Z,21.12
2022-09-24T12:40:22.984Z,20.90
2022-09-24T12:42:50.432Z,21.29
2022-09-24T12:45:18.313Z,20.99
2022-09-24T12:47:52.228Z,20.86
2022-09-24T12:50:40.674Z,21.11
2022-09-24T12:53:24.891Z,20.83
2022-09-24T12:55:51.936Z,20.84
2022-09-24T12:58:37.548Z,20.44
2022-09-24T13:01:05.601Z,20.66
2022-09-24T13:03:33.242Z,21.14
2022-09-24T13:06:00.389Z,21.10
2022-09-24T13:08:35.415Z,21.15
2022-09-24T13:11:05.653Z,21.07
2022-09-24T13:13:36.476Z,21.08
2022-09-24T13:16:03.222Z,21.03
2022-09-24T13:18:30.124Z,20.98
2022-09-24T13:21:00.139Z,21.09
2022-09-24T13:23:27.416Z,21.14
2022-09-24T13:25:56.469Z,20.82
2022-09-24T13:28:25.357Z,21.39
2022-09-24T13:30:59.874Z,21.34
2022-09-24T13:33:33.753Z,20.92
2022-09-24T13:36:06.566Z,20.59
2022-09-24T13:38:34.317Z,21.30
2022-09-24T13:41:02.807Z,21.36
2022-09-24T13:43:33.514Z,20.96
2022-09-24T13:46:00.514Z,21.16
2022-09-24T13:48:32.430Z,21.14
2022-09-24T13:50:59.129Z,21.11
2022-09-24T13:53:37.259Z,20.92
2022-09-24T13:56:04.624Z,20.86
2022-09-24T13:58:32.904Z,20.88
2022-09-24T14:01:00.365Z,20.71
2022-09-24T14:03:33.854Z,20.80
2022-09-24T14:06:00.717Z,20.72
2022-09-24T14:08:28.056Z,20.78
2022-09-24T14:11:04.132Z,20.55
2022-09-24T14:13:31.093Z,20.78
2022-09-24T14:15:57.935Z,20.90
2022-09-24T14:18:25.874Z,20.67
2022-09-24T14:20:57.218Z,20.83
2022-09-24T14:23:24.614Z,20.93
2022-09-24T14:25:51.308Z,20.88
2022-09-24T14:28:18.290Z,20.92
2022-09-24T14:30:52.121Z,21.11
2022-09-24T14:33:20.434Z,21.20
2022-09-24T14:35:48.140Z,20.44
2022-09-24T14:38:31.299Z,20.69
2022-09-24T14:41:05.671Z,20.71
2022-09-24T14:43:52.677Z,20.59
2022-09-24T14:46:19.910Z,20.65
2022-09-24T14:48:47.635Z,20.71
2022-09-24T14:51:30.508Z,20.63
2022-09-24T14:54:20.419Z,20.82
2022-09-24T14:56:47.147Z,20.69
2022-09-24T14:59:16.835Z,20.82
2022-09-24T15:01:43.544Z,20.85
2022-09-24T15:04:18.406Z,20.66
2022-09-24T15:06:46.178Z,20.64
2022-09-24T15:09:22.340Z,20.75
2022-09-24T15:11:49.333Z,20.58
2022-09-24T15:14:16.042Z,20.79
2022-09-24T15:16:43.332Z,20.67
2022-09-24T15:19:37.799Z,20.60
2022-09-24T15:22:04.496Z,20.51
2022-09-24T15:24:31.444Z,20.64
2022-09-24T15:27:04.316Z,20.80
2022-09-24T15:29:31.448Z,20.76
2022-09-24T15:31:58.110Z,20.76
2022-09-24T15:34:24.914Z,20.68
2022-09-24T15:36:54.151Z,20.76
2022-09-24T15:39:20.831Z,20.84
2022-09-24T15:41:47.606Z,20.83
2022-09-24T15:44:20.418Z,20.86
2022-09-24T15:46:48.223Z,20.72
2022-09-24T15:49:16.337Z,20.74
2022-09-24T15:51:44.081Z,20.61
2022-09-24T15:54:10.788Z,20.62
2022-09-24T15:56:41.032Z,20.61
2022-09-24T15:59:13.094Z,20.67
2022-09-24T16:01:40.451Z,20.56
2022-09-24T16:04:08.943Z,20.37
2022-09-24T16:06:36.686Z,20.51
2022-09-24T16:09:04.082Z,20.49
2022-09-24T16:11:31.450Z,20.54
2022-09-24T16:13:58.119Z,20.58
2022-09-24T16:16:25.019Z,20.28
2022-09-24T16:18:52.541Z,20.54
2022-09-24T16:21:19.359Z,20.40
2022-09-24T16:23:46.038Z,20.42
2022-09-24T16:26:12.974Z,20.36
2022-09-24T16:28:39.963Z,20.25
2022-09-24T16:31:09.614Z,20.29
2022-09-24T16:33:37.538Z,20.12
2022-09-24T16:36:05.383Z,20.17
2022-09-24T16:38:35.827Z,20.25
2022-09-24T16:41:03.104Z,20.18
2022-09-24T16:43:29.900Z,20.12
2022-09-24T16:46:00.136Z,19.85
2022-09-24T16:48:27.404Z,19.67
2022-09-24T16:50:55.539Z,20.10
2022-09-24T16:53:22.248Z,20.05
2022-09-24T16:55:50.398Z,19.94
2022-09-24T16:58:17.140Z,20.12
2022-09-24T17:00:43.883Z,19.89
2022-09-24T17:03:11.160Z,19.86
2022-09-24T17:05:40.696Z,19.79
2022-09-24T17:08:07.479Z,19.87
2022-09-24T17:10:34.546Z,19.71
2022-09-24T17:13:01.855Z,19.72
2022-09-24T17:15:28.742Z,19.80
2022-09-24T17:17:55.752Z,19.76
2022-09-24T17:20:22.483Z,19.63
2022-09-24T17:22:49.859Z,19.58
2022-09-24T17:25:17.005Z,19.50
2022-09-24T17:27:44.970Z,19.46
2022-09-24T17:30:11.902Z,19.39
2022-09-24T17:32:38.858Z,19.37
2022-09-24T17:35:08.855Z,19.28
2022-09-24T17:37:36.004Z,19.23
2022-09-24T17:40:25.104Z,19.31
2022-09-24T17:43:04.898Z,19.24
2022-09-24T17:45:38.826Z,19.25
2022-09-24T17:48:19.701Z,19.21
2022-09-24T17:51:09.840Z,19.21
2022-09-24T17:53:38.015Z,19.23
2022-09-24T17:56:08.223Z,19.14
2022-09-24T17:58:42.165Z,19.09
2022-09-24T18:01:13.820Z,18.92
2022-09-24T18:03:41.652Z,18.91
2022-09-24T18:06:36.668Z,18.87
2022-09-24T18:09:16.574Z,18.88
2022-09-24T18:11:57.096Z,18.77
2022-09-24T18:14:26.025Z,18.80
2022-09-24T18:16:59.019Z,18.59
2022-09-24T18:19:36.473Z,18.38
2022-09-24T18:22:06.597Z,18.58
2022-09-24T18:24:34.373Z,18.58
2022-09-24T18:27:01.920Z,18.48
2022-09-24T18:29:32.859Z,18.61
2022-09-24T18:32:02.042Z,18.49
2022-09-24T18:34:30.022Z,18.48
2022-09-24T18:36:57.395Z,18.56
2022-09-24T18:39:27.224Z,18.55
2022-09-24T18:41:59.156Z,18.68
2022-09-24T18:44:33.789Z,18.42
2022-09-24T18:47:03.766Z,18.57
2022-09-24T18:49:32.435Z,18.62
2022-09-24T18:51:59.603Z,18.64
2022-09-24T18:54:47.103Z,18.74
2022-09-24T18:57:14.802Z,18.76
2022-09-24T18:59:48.503Z,18.73
2022-09-24T19:02:17.910Z,18.58
2022-09-24T19:04:48.862Z,18.69
2022-09-24T19:07:20.671Z,18.65
2022-09-24T19:09:54.265Z,18.55
2022-09-24T19:12:26.311Z,18.82
2022-09-24T19:15:00.499Z,18.71
2022-09-24T19:17:32.594Z,18.65
2022-09-24T19:23:01.977Z,18.45
2022-09-24T19:25:32.495Z,18.41
2022-09-24T19:27:59.854Z,18.39
2022-09-24T19:30:27.671Z,18.50
2022-09-24T19:32:54.363Z,18.49
2022-09-24T19:35:22.581Z,18.42
2022-09-24T19:37:50.226Z,18.42
2022-09-24T19:40:19.837Z,18.19
2022-09-24T19:42:47.258Z,18.51
2022-09-24T19:45:15.048Z,18.49
2022-09-24T19:47:42.038Z,18.37
2022-09-24T19:50:17.894Z,18.24
2022-09-24T19:52:47.333Z,18.24
2022-09-24T19:55:18.157Z,18.29
2022-09-24T19:57:46.637Z,18.16
2022-09-24T20:00:15.025Z,18.17
2022-09-24T20:02:42.146Z,18.24
2022-09-24T20:05:08.874Z,18.30
2022-09-24T20:07:35.686Z,18.38
2022-09-24T20:10:03.296Z,18.24
2022-09-24T20:12:30.054Z,18.29
2022-09-24T20:14:56.769Z,18.23
2022-09-24T20:17:24.138Z,18.07
2022-09-24T20:19:50.848Z,17.93
2022-09-24T20:22:17.657Z,17.97
2022-09-24T20:24:44.650Z,18.07
2022-09-24T20:27:30.636Z,18.19
2022-09-24T20:29:57.637Z,18.05
2022-09-24T20:32:27.026Z,17.91
2022-09-24T20:34:53.805Z,17.97
2022-09-24T20:37:20.845Z,17.95
2022-09-24T20:39:48.359Z,17.61
2022-09-24T20:42:16.374Z,17.78
2022-09-24T20:44:46.253Z,17.88
2022-09-24T20:47:13.424Z,17.94
2022-09-24T20:49:41.726Z,17.81
2022-09-24T20:52:12.605Z,18.00
2022-09-24T20:54:41.975Z,18.04
2022-09-24T20:57:09.766Z,17.55
2022-09-24T20:59:40.349Z,17.67
2022-09-24T21:02:07.504Z,17.67
2022-09-24T21:04:44.601Z,17.64
2022-09-24T21:07:12.223Z,17.90
2022-09-24T21:09:39.759Z,17.99
2022-09-24T21:12:08.815Z,17.94
2022-09-24T21:14:37.312Z,17.59
2022-09-24T21:17:10.357Z,17.81
2022-09-24T21:19:40.561Z,17.49
2022-09-24T21:22:08.337Z,17.56
2022-09-24T21:24:36.972Z,17.72
2022-09-24T21:27:05.276Z,17.68
2022-09-24T21:29:32.847Z,17.57
2022-09-24T21:31:59.552Z,17.63
2022-09-24T21:34:26.711Z,17.50
2022-09-24T21:36:53.695Z,17.50
2022-09-24T21:39:23.065Z,17.58
2022-09-24T21:41:50.320Z,17.55
2022-09-24T21:44:17.755Z,17.50
2022-09-24T21:46:44.489Z,17.43
2022-09-24T21:49:11.314Z,17.50
2022-09-24T21:51:38.571Z,17.45
2022-09-24T21:54:06.311Z,17.30
2022-09-24T21:56:33.521Z,17.19
2022-09-24T21:59:00.628Z,17.22
2022-09-24T22:01:28.805Z,17.22
2022-09-24T22:03:59.614Z,17.34
2022-09-24T22:06:29.897Z,17.26
2022-09-24T22:08:57.983Z,17.05
2022-09-24T22:11:26.389Z,17.27
2022-09-24T22:13:53.710Z,17.31
2022-09-24T22:16:21.130Z,17.18
2022-09-24T22:18:47.806Z,17.27
2022-09-24T22:21:14.949Z,17.36
2022-09-24T22:23:42.012Z,17.30
2022-09-24T22:26:09.231Z,17.20
2022-09-24T22:28:36.246Z,17.28
2022-09-24T22:31:04.808Z,17.20
2022-09-24T22:33:50.534Z,17.25
2022-09-24T22:36:17.567Z,16.82
2022-09-24T22:38:44.261Z,17.05
2022-09-24T22:41:12.200Z,17.05
2022-09-24T22:43:39.636Z,17.24
2022-09-24T22:46:07.472Z,17.08
2022-09-24T22:48:34.322Z,16.86
2022-09-24T22:51:01.778Z,16.92
2022-09-24T22:53:28.638Z,16.97
2022-09-24T22:56:09.045Z,16.94
2022-09-24T22:58:36.541Z,16.84
2022-09-24T23:01:10.737Z,16.83
2022-09-24T23:03:38.125Z,16.72
2022-09-24T23:06:06.175Z,16.74
2022-09-24T23:08:33.621Z,16.70
2022-09-24T23:11:14.546Z,16.49
2022-09-24T23:13:42.154Z,16.58
2022-09-24T23:16:10.454Z,16.15
2022-09-24T23:18:37.785Z,16.24
2022-09-24T23:21:05.357Z,16.34
2022-09-24T23:23:32.732Z,16.45
2022-09-24T23:26:07.702Z,16.22
2022-09-24T23:28:34.809Z,16.32
2022-09-24T23:31:01.904Z,16.39
2022-09-24T23:33:35.851Z,16.22
2022-09-24T23:36:03.715Z,16.16
2022-09-24T23:38:30.462Z,16.22
2022-09-24T23:40:58.811Z,16.30
2022-09-24T23:43:27.374Z,16.34
2022-09-24T23:45:54.689Z,16.21
2022-09-24T23:48:21.589Z,16.17
2022-09-24T23:50:49.038Z,16.15
2022-09-24T23:53:16.739Z,15.92
2022-09-24T23:55:47.885Z,15.89
2022-09-24T23:58:17.130Z,15.80
